LEAB/ABC METAR and TAF weather

Enter ICAO airport designator
Station Type Date Time Source
LEAB METAR 2021/07/30 22:30 UTC NOAA

LEAB 302230Z 23008KT CAVOK 25/01 Q1014 NOSIG


Station Type Date Time Source
LEAB Decoded METAR 2021/07/30 22:30 UTC NOAA

Albacete / Los Llanos, Spain (LEAB) 38-57N 001-51W 704M
Jul 30, 2021 - 06:30 PM EDT / 2021.07.30 2230 UTC
Wind: from the SW (230 degrees) at 9 MPH (8 KT):0
Visibility: greater than 7 mile(s):0
Temperature: 77 F (25 C)
Dew Point: 33 F (1 C)
Relative Humidity: 20%
Pressure (altimeter): 29.94 in. Hg (1014 hPa)
ob: LEAB 302230Z 23008KT CAVOK 25/01 Q1014 NOSIG
cycle: 22

Station Type Date Time Source
LEAB TAF 2021/07/30 18:27 UTC NOAA

TAF LEAB 301700Z 3018/3118 26010KT CAVOK TX36/3018Z TN18/3105Z PROB40
TEMPO 3115/3118 28015G30KT

Example: see airport list